Time;durP1;ratioP1;P1;durP2;ratioP2;P2;SDS_P1;SDS_P2;PMS_P1;PMS_P2;Temp;Humidity;BMP_temperature;BMP_pressure;BME280_temperature;BME280_humidity;BME280_pressure;Samples;Min_cycle;Max_cycle;Signal;HPM_P1;HPM_P2
2022/11/12 00:00:25;;;;;;;151.10;70.82;;;2.80;99.90;;;;;;5073324;28;20036;-71
2022/11/12 00:02:50;;;;;;;108.68;55.40;;;2.70;99.90;;;;;;5071763;28;20463;-69
2022/11/12 00:05:16;;;;;;;135.38;58.85;;;2.70;99.90;;;;;;5076986;28;20119;-76
2022/11/12 00:07:42;;;;;;;108.80;50.67;;;2.60;99.90;;;;;;5073391;28;20021;-69
2022/11/12 00:10:08;;;;;;;146.88;61.58;;;2.60;99.90;;;;;;5063023;28;20032;-76
2022/11/12 00:12:33;;;;;;;96.40;44.28;;;2.50;99.90;;;;;;5067913;28;20027;-69
2022/11/12 00:14:59;;;;;;;97.18;44.53;;;2.40;99.90;;;;;;5063415;28;20066;-69
2022/11/12 00:17:24;;;;;;;104.78;44.25;;;2.50;99.90;;;;;;5074686;28;20024;-77
2022/11/12 00:19:50;;;;;;;109.97;48.58;;;2.40;99.90;;;;;;5090363;28;20024;-78
2022/11/12 00:22:16;;;;;;;124.85;55.45;;;2.40;99.90;;;;;;5074638;28;20074;-70
2022/11/12 00:24:41;;;;;;;122.80;53.22;;;2.30;99.90;;;;;;5074620;28;20024;-69
2022/11/12 00:27:07;;;;;;;120.20;55.15;;;2.30;99.90;;;;;;5074724;28;20024;-76
2022/11/12 00:29:32;;;;;;;117.93;53.15;;;2.30;99.90;;;;;;5074543;28;20053;-77
2022/11/12 00:31:58;;;;;;;125.00;57.60;;;2.30;99.90;;;;;;5073203;28;20012;-69
2022/11/12 00:34:24;;;;;;;151.73;64.72;;;2.30;99.90;;;;;;5074348;28;20090;-69
2022/11/12 00:36:49;;;;;;;173.85;68.18;;;2.30;99.90;;;;;;5074513;28;20024;-76
2022/11/12 00:39:15;;;;;;;157.27;59.97;;;2.30;99.90;;;;;;5074447;28;20051;-70
2022/11/12 00:41:40;;;;;;;170.88;64.07;;;2.30;99.90;;;;;;5072932;28;20044;-76
2022/11/12 00:44:06;;;;;;;162.07;59.15;;;2.30;99.90;;;;;;5073369;28;20048;-77
2022/11/12 00:46:31;;;;;;;130.25;53.95;;;2.30;99.90;;;;;;5073060;28;20470;-70
2022/11/12 00:48:57;;;;;;;126.60;54.38;;;2.20;99.90;;;;;;5074125;28;20021;-69
2022/11/12 00:51:23;;;;;;;126.90;56.00;;;2.20;99.90;;;;;;5074340;28;20032;-76
2022/11/12 00:53:49;;;;;;;130.00;59.47;;;2.20;99.90;;;;;;5072965;28;20107;-70
2022/11/12 00:56:15;;;;;;;123.47;56.47;;;2.20;99.90;;;;;;5072871;28;20055;-77
2022/11/12 00:58:41;;;;;;;127.43;61.00;;;2.20;99.90;;;;;;5073944;28;20044;-69
2022/11/12 01:01:12;;;;;;;99.65;49.80;;;2.20;99.90;;;;;;5074058;28;20032;-67
2022/11/12 01:03:39;;;;;;;89.20;45.60;;;2.20;99.90;;;;;;5072743;28;20462;-76
2022/11/12 01:06:15;;;;;;;97.07;44.70;;;2.10;99.90;;;;;;5073918;28;20024;-69
2022/11/12 01:08:41;;;;;;;96.22;46.47;;;2.10;99.90;;;;;;5072605;28;20428;-76
2022/11/12 01:11:08;;;;;;;99.35;45.47;;;2.10;99.90;;;;;;5073449;28;20024;-69
2022/11/12 01:13:34;;;;;;;92.55;43.78;;;2.10;99.90;;;;;;5073792;28;20070;-69
2022/11/12 01:16:05;;;;;;;80.93;40.08;;;2.00;99.90;;;;;;5072580;28;20490;-69
2022/11/12 01:18:31;;;;;;;92.05;40.50;;;2.00;99.90;;;;;;5079288;28;20082;-69
2022/11/12 01:21:02;;;;;;;126.43;39.65;;;2.00;99.90;;;;;;5094077;28;20056;-76
2022/11/12 01:23:30;;;;;;;95.15;40.10;;;1.90;99.90;;;;;;5086748;28;20202;-77
2022/11/12 01:25:56;;;;;;;97.22;40.38;;;1.90;99.90;;;;;;5072304;28;20029;-69
2022/11/12 01:28:21;;;;;;;96.03;39.28;;;1.80;99.90;;;;;;5073698;28;20542;-70
2022/11/12 01:30:47;;;;;;;85.03;38.00;;;1.80;99.90;;;;;;5073541;28;20107;-69
2022/11/12 01:33:12;;;;;;;150.77;46.72;;;1.80;99.90;;;;;;5073552;28;20025;-69
2022/11/12 01:35:38;;;;;;;99.00;39.67;;;1.80;99.90;;;;;;5073406;28;20091;-69
2022/11/12 01:38:04;;;;;;;113.38;42.67;;;1.80;99.90;;;;;;5073461;28;20079;-77
2022/11/12 01:40:31;;;;;;;130.77;41.40;;;1.80;99.90;;;;;;5071799;28;20020;-77
2022/11/12 01:42:57;;;;;;;176.63;49.45;;;1.80;99.90;;;;;;5073411;28;20017;-77
2022/11/12 01:45:22;;;;;;;129.07;44.22;;;1.70;99.90;;;;;;5073285;28;20047;-69
2022/11/12 01:47:51;;;;;;;167.70;51.92;;;1.70;99.90;;;;;;5073318;28;20021;-70
2022/11/12 01:50:25;;;;;;;129.98;50.75;;;1.60;99.90;;;;;;5071945;28;20028;-69
2022/11/12 01:52:56;;;;;;;137.23;49.85;;;1.50;99.90;;;;;;5073526;28;20024;-69
2022/11/12 01:55:25;;;;;;;110.57;47.88;;;1.50;99.90;;;;;;5073254;28;20371;-77
2022/11/12 01:58:12;;;;;;;85.82;42.08;;;1.50;99.90;;;;;;5073188;28;20036;-77
2022/11/12 02:00:39;;;;;;;114.22;43.47;;;1.60;99.90;;;;;;5073051;28;20420;-77
2022/11/12 02:03:11;;;;;;;112.00;45.30;;;1.50;99.90;;;;;;5073205;28;20100;-68
2022/11/12 02:05:38;;;;;;;123.60;46.80;;;1.40;99.90;;;;;;5073130;28;20033;-69
2022/11/12 02:08:06;;;;;;;95.38;41.20;;;1.40;99.90;;;;;;5071899;28;20024;-76
2022/11/12 02:10:33;;;;;;;106.47;44.75;;;1.40;99.90;;;;;;5073078;28;20017;-69
2022/11/12 02:15:43;;;;;;;106.15;46.35;;;1.40;99.90;;;;;;5073290;28;20448;-77
2022/11/12 02:18:09;;;;;;;90.85;44.28;;;1.30;99.90;;;;;;5075866;28;20032;-70
2022/11/12 02:20:38;;;;;;;80.38;39.17;;;1.40;99.90;;;;;;5108885;28;20035;-70
2022/11/12 02:23:05;;;;;;;106.60;44.00;;;1.40;99.90;;;;;;5107341;28;20063;-77
2022/11/12 02:25:32;;;;;;;105.43;44.88;;;1.40;99.90;;;;;;5075755;28;20032;-77
2022/11/12 02:27:59;;;;;;;101.25;44.58;;;1.30;99.90;;;;;;5075855;28;20023;-69
2022/11/12 02:30:33;;;;;;;106.47;42.38;;;1.30;99.90;;;;;;5076702;28;20462;-77
2022/11/12 02:32:59;;;;;;;91.88;42.13;;;1.30;99.90;;;;;;5077035;28;20020;-77
2022/11/12 02:35:24;;;;;;;95.20;42.28;;;1.30;99.90;;;;;;5075544;28;20025;-69
2022/11/12 02:37:50;;;;;;;106.72;47.38;;;1.20;99.90;;;;;;5076859;28;20036;-77
2022/11/12 02:40:16;;;;;;;101.80;44.47;;;1.30;99.90;;;;;;5076709;28;20040;-68
2022/11/12 02:42:41;;;;;;;106.35;48.72;;;1.30;99.90;;;;;;5076722;28;20468;-69
2022/11/12 02:45:08;;;;;;;107.93;49.45;;;1.30;99.90;;;;;;5075317;28;20386;-77
2022/11/12 02:47:33;;;;;;;149.13;63.80;;;1.30;99.90;;;;;;5076617;28;20063;-69
2022/11/12 02:49:59;;;;;;;112.03;48.13;;;1.20;99.90;;;;;;5076542;28;20474;-69
2022/11/12 02:52:25;;;;;;;77.25;34.92;;;1.20;99.90;;;;;;5075446;28;20122;-70
2022/11/12 02:54:50;;;;;;;67.07;33.05;;;1.20;99.90;;;;;;5076434;28;20120;-76
2022/11/12 02:57:16;;;;;;;61.80;32.78;;;1.20;99.90;;;;;;5075255;28;20107;-69
2022/11/12 02:59:41;;;;;;;58.45;30.35;;;1.20;99.90;;;;;;5075148;28;20039;-69
2022/11/12 03:02:07;;;;;;;68.57;32.88;;;1.20;99.90;;;;;;5075194;28;20017;-76
2022/11/12 03:04:32;;;;;;;64.82;32.45;;;1.20;99.90;;;;;;5075034;28;20024;-69
2022/11/12 03:06:58;;;;;;;67.97;33.13;;;1.20;99.90;;;;;;5076270;28;20479;-77
2022/11/12 03:09:24;;;;;;;64.22;32.78;;;1.20;99.90;;;;;;5076244;28;20189;-77
2022/11/12 03:11:49;;;;;;;72.75;31.92;;;1.20;99.90;;;;;;5075048;28;20024;-69
2022/11/12 03:14:15;;;;;;;62.47;31.42;;;1.20;99.90;;;;;;5076202;28;20028;-77
2022/11/12 03:16:40;;;;;;;60.88;29.75;;;1.30;99.90;;;;;;5074833;28;20471;-69
2022/11/12 03:19:06;;;;;;;64.25;32.05;;;1.30;99.90;;;;;;5087091;28;20034;-69
2022/11/12 03:21:32;;;;;;;65.13;30.25;;;1.30;99.90;;;;;;5096262;28;20474;-76
2022/11/12 03:23:57;;;;;;;75.93;35.53;;;1.40;99.90;;;;;;5084192;28;20028;-69
2022/11/12 03:26:23;;;;;;;72.57;34.60;;;1.30;99.90;;;;;;5075939;28;20088;-70
2022/11/12 03:28:50;;;;;;;64.72;33.45;;;1.30;99.90;;;;;;5075940;28;20032;-77
2022/11/12 03:31:16;;;;;;;76.25;33.35;;;1.30;99.90;;;;;;5075686;28;20021;-76
2022/11/12 03:33:41;;;;;;;70.07;33.75;;;1.30;99.90;;;;;;5075496;28;20024;-69
2022/11/12 03:36:07;;;;;;;82.25;34.08;;;1.30;99.90;;;;;;5075637;28;20478;-76
2022/11/12 03:38:32;;;;;;;80.15;34.58;;;1.30;99.90;;;;;;5075765;28;20124;-71
2022/11/12 03:40:58;;;;;;;81.63;36.28;;;1.30;99.90;;;;;;5075423;28;20092;-68
2022/11/12 03:43:24;;;;;;;96.35;34.55;;;1.30;99.90;;;;;;5074475;28;20175;-70
2022/11/12 03:45:49;;;;;;;82.25;35.25;;;1.30;99.90;;;;;;5074369;28;20467;-68
2022/11/12 03:48:15;;;;;;;110.45;37.30;;;1.30;99.90;;;;;;5075556;28;20061;-69
2022/11/12 03:50:41;;;;;;;74.22;32.75;;;1.30;99.90;;;;;;5074264;28;20020;-76
2022/11/12 03:53:07;;;;;;;83.25;33.75;;;1.30;99.90;;;;;;5074024;28;20079;-76
2022/11/12 03:55:32;;;;;;;74.97;32.47;;;1.30;99.90;;;;;;5075402;28;20042;-76
2022/11/12 03:57:58;;;;;;;84.22;35.58;;;1.30;99.90;;;;;;5075279;28;20107;-70
2022/11/12 04:00:26;;;;;;;94.75;37.65;;;1.30;99.90;;;;;;5075341;28;20383;-69
2022/11/12 04:02:52;;;;;;;87.60;35.92;;;1.30;99.90;;;;;;5075345;28;20016;-69
2022/11/12 04:08:36;;;;;;;84.63;35.75;;;1.30;99.90;;;;;;5075620;28;20125;-69
2022/11/12 04:11:13;;;;;;;117.10;38.80;;;1.30;99.90;;;;;;5075301;28;20028;-69
2022/11/12 04:13:41;;;;;;;86.95;34.50;;;1.40;99.90;;;;;;5075300;28;20048;-77
2022/11/12 04:21:55;;;;;;;95.95;40.30;;;1.30;99.90;;;;;;5095514;28;20100;-76
2022/11/12 04:27:18;;;;;;;109.60;39.83;;;1.30;99.90;;;;;;5074818;28;20460;-69
2022/11/12 04:32:32;;;;;;;71.18;31.58;;;1.20;99.90;;;;;;5075076;28;20117;-77
2022/11/12 04:34:58;;;;;;;96.15;35.40;;;1.20;99.90;;;;;;5082024;28;20044;-77
2022/11/12 04:37:25;;;;;;;117.35;39.25;;;1.20;99.90;;;;;;5094746;28;20058;-76
2022/11/12 04:39:52;;;;;;;141.10;41.22;;;1.10;99.90;;;;;;5094800;28;20457;-77
2022/11/12 04:45:07;;;;;;;80.45;36.30;;;1.00;99.90;;;;;;5080143;28;20051;-68
2022/11/12 04:47:42;;;;;;;71.28;35.08;;;0.90;99.90;;;;;;5074370;28;20028;-69
2022/11/12 04:50:14;;;;;;;76.47;33.30;;;1.00;99.90;;;;;;5074363;28;20024;-68
2022/11/12 04:52:40;;;;;;;224.07;49.35;;;1.00;99.90;;;;;;5074408;28;20039;-76
2022/11/12 04:55:07;;;;;;;138.93;39.25;;;0.90;99.90;;;;;;5073030;28;20028;-68
2022/11/12 04:57:32;;;;;;;125.00;39.05;;;0.90;99.90;;;;;;5072797;28;20024;-76
2022/11/12 04:59:58;;;;;;;129.48;39.00;;;0.90;99.90;;;;;;5072807;28;20020;-68
2022/11/12 05:02:23;;;;;;;92.95;35.95;;;0.80;99.90;;;;;;5074117;28;20027;-76
2022/11/12 05:04:49;;;;;;;82.53;35.20;;;0.80;99.90;;;;;;5074186;28;20074;-77
2022/11/12 05:07:15;;;;;;;89.22;38.65;;;0.90;99.90;;;;;;5074045;28;20090;-76
2022/11/12 05:09:41;;;;;;;73.10;33.30;;;0.90;99.90;;;;;;5074007;28;20032;-76
2022/11/12 05:12:08;;;;;;;92.70;37.03;;;0.90;99.90;;;;;;5073762;28;20027;-76
2022/11/12 05:14:33;;;;;;;84.63;36.58;;;0.90;99.90;;;;;;5073814;28;20040;-68
2022/11/12 05:16:59;;;;;;;101.05;40.38;;;0.90;99.90;;;;;;5072462;28;20170;-70
2022/11/12 05:19:25;;;;;;;91.13;38.70;;;0.90;99.90;;;;;;5086775;28;20032;-68
2022/11/12 05:22:05;;;;;;;105.10;39.38;;;0.80;99.90;;;;;;5092714;28;20113;-69
2022/11/12 05:24:36;;;;;;;94.82;36.45;;;0.80;99.90;;;;;;5075271;28;20173;-68
2022/11/12 05:27:02;;;;;;;93.97;39.30;;;0.80;99.90;;;;;;5073721;28;20506;-69
2022/11/12 05:29:28;;;;;;;96.45;40.25;;;0.80;99.90;;;;;;5073452;28;20025;-68
2022/11/12 05:31:54;;;;;;;95.15;40.42;;;0.70;99.90;;;;;;5073721;28;20021;-76
2022/11/12 05:34:20;;;;;;;221.15;62.50;;;0.70;99.90;;;;;;5073451;28;20020;-68
2022/11/12 05:36:46;;;;;;;142.60;50.55;;;0.70;99.90;;;;;;5073531;28;20385;-68
2022/11/12 05:39:11;;;;;;;103.25;43.17;;;0.70;99.90;;;;;;5073230;28;20036;-68
2022/11/12 05:41:37;;;;;;;111.75;44.15;;;0.70;99.90;;;;;;5073260;28;20044;-76
2022/11/12 05:44:03;;;;;;;105.38;39.65;;;0.70;99.90;;;;;;5073085;28;20039;-76
2022/11/12 05:46:29;;;;;;;115.47;45.17;;;0.70;99.90;;;;;;5073379;28;20023;-69
2022/11/12 05:48:55;;;;;;;111.88;39.55;;;0.80;99.90;;;;;;5073082;28;20071;-69
2022/11/12 05:51:20;;;;;;;109.78;41.17;;;0.70;99.90;;;;;;5072039;28;20022;-69
2022/11/12 05:53:46;;;;;;;136.70;47.00;;;0.70;99.90;;;;;;5073194;28;20032;-70
2022/11/12 05:56:11;;;;;;;101.65;42.17;;;0.70;99.90;;;;;;5071876;28;20099;-76
2022/11/12 05:58:37;;;;;;;187.60;50.58;;;0.70;99.90;;;;;;5072983;28;20097;-76
2022/11/12 06:01:03;;;;;;;93.80;42.30;;;0.70;99.90;;;;;;5073255;28;20032;-75
2022/11/12 06:03:29;;;;;;;88.10;40.20;;;0.70;99.90;;;;;;5073160;28;20025;-69
2022/11/12 06:05:55;;;;;;;119.20;43.83;;;0.70;99.90;;;;;;5073209;28;20024;-76
2022/11/12 06:08:21;;;;;;;128.20;46.67;;;0.70;99.90;;;;;;5073127;28;20115;-69
2022/11/12 06:10:54;;;;;;;124.78;46.95;;;0.60;99.90;;;;;;5071910;28;20025;-76
2022/11/12 06:13:24;;;;;;;109.18;42.22;;;0.70;99.90;;;;;;5073106;28;20071;-75
2022/11/12 06:15:51;;;;;;;167.07;52.90;;;0.70;99.90;;;;;;5088655;28;20021;-76
2022/11/12 06:18:17;;;;;;;94.05;41.03;;;0.60;99.90;;;;;;5072629;28;20107;-76
2022/11/12 06:20:42;;;;;;;96.88;42.53;;;0.60;99.90;;;;;;5073002;28;20411;-68
2022/11/12 06:23:08;;;;;;;132.35;53.08;;;0.60;99.90;;;;;;5072943;28;20086;-77
2022/11/12 06:25:33;;;;;;;204.30;71.93;;;0.70;99.90;;;;;;5072998;28;20032;-68
2022/11/12 06:27:59;;;;;;;123.85;54.05;;;0.70;99.90;;;;;;5072871;28;20031;-70
2022/11/12 06:30:24;;;;;;;102.15;46.00;;;0.70;99.90;;;;;;5072895;28;20055;-76
2022/11/12 06:32:51;;;;;;;101.82;43.55;;;0.70;99.90;;;;;;5072863;28;20124;-76
2022/11/12 06:35:17;;;;;;;122.13;43.85;;;0.70;99.90;;;;;;5072911;28;20017;-69
2022/11/12 06:37:47;;;;;;;122.10;49.75;;;0.70;99.90;;;;;;5071546;28;20440;-68
2022/11/12 06:40:13;;;;;;;163.88;64.20;;;0.70;99.90;;;;;;5072704;28;20044;-69
2022/11/12 06:42:39;;;;;;;117.65;52.15;;;0.80;99.90;;;;;;5071559;28;20486;-69
2022/11/12 06:45:06;;;;;;;158.55;65.05;;;0.80;99.90;;;;;;5072726;28;20413;-68
2022/11/12 06:47:31;;;;;;;141.35;59.05;;;0.90;99.90;;;;;;5072665;28;20027;-76
2022/11/12 06:49:57;;;;;;;109.43;48.15;;;0.90;99.90;;;;;;5088141;28;20016;-76
2022/11/12 06:52:22;;;;;;;96.40;43.50;;;0.90;99.90;;;;;;5088249;28;20155;-69
2022/11/12 06:54:48;;;;;;;130.18;54.75;;;1.00;99.90;;;;;;5072630;28;20021;-76
2022/11/12 06:57:13;;;;;;;142.18;56.20;;;1.00;99.90;;;;;;5072830;28;20028;-76
2022/11/12 06:59:39;;;;;;;106.60;45.08;;;1.10;99.90;;;;;;5072423;28;20035;-77
2022/11/12 07:02:05;;;;;;;112.70;41.83;;;1.10;99.90;;;;;;5072726;28;20032;-69
2022/11/12 07:04:30;;;;;;;124.13;42.13;;;1.20;99.90;;;;;;5072519;28;20107;-69
2022/11/12 07:06:56;;;;;;;92.35;38.03;;;1.30;99.90;;;;;;5071343;28;20020;-69
2022/11/12 07:09:22;;;;;;;116.72;44.40;;;1.30;99.90;;;;;;5073988;28;20067;-69
2022/11/12 07:11:47;;;;;;;128.43;44.60;;;1.40;99.90;;;;;;5076249;28;20498;-76
2022/11/12 07:14:13;;;;;;;178.90;43.83;;;1.50;99.90;;;;;;5075966;28;20372;-75
2022/11/12 07:16:38;;;;;;;128.77;37.42;;;1.50;99.90;;;;;;5076278;28;20107;-69
2022/11/12 07:19:04;;;;;;;134.35;45.75;;;1.50;99.90;;;;;;5075838;28;20032;-69
2022/11/12 07:21:30;;;;;;;98.70;40.63;;;1.50;99.90;;;;;;5076066;28;20081;-76
2022/11/12 07:23:55;;;;;;;170.60;47.58;;;1.60;99.90;;;;;;5075711;28;20028;-68
2022/11/12 07:26:23;;;;;;;164.38;50.35;;;1.70;99.90;;;;;;5075954;28;20062;-70
2022/11/12 07:28:50;;;;;;;98.47;40.38;;;1.70;99.90;;;;;;5091463;28;20062;-76
2022/11/12 07:31:18;;;;;;;115.93;42.58;;;1.90;99.90;;;;;;5075594;28;20020;-77
2022/11/12 07:33:44;;;;;;;139.27;42.88;;;1.90;99.90;;;;;;5075787;28;20024;-69
2022/11/12 07:36:12;;;;;;;120.65;43.53;;;2.00;99.90;;;;;;5074641;28;20039;-69
2022/11/12 07:38:40;;;;;;;270.20;62.78;;;2.10;99.90;;;;;;5075651;28;20127;-69
2022/11/12 07:41:11;;;;;;;101.05;41.72;;;2.20;99.90;;;;;;5074231;28;20162;-69
2022/11/12 07:43:38;;;;;;;117.82;45.05;;;2.30;99.90;;;;;;5075641;28;20358;-69
2022/11/12 07:46:09;;;;;;;97.10;43.95;;;2.40;99.90;;;;;;5074283;28;20020;-68
2022/11/12 07:48:35;;;;;;;282.02;66.32;;;2.50;99.90;;;;;;5075500;28;20056;-76
2022/11/12 07:51:16;;;;;;;150.05;47.83;;;2.50;99.90;;;;;;5075515;28;20060;-68
2022/11/12 07:53:43;;;;;;;107.10;46.05;;;2.60;99.90;;;;;;5074232;28;20359;-69
2022/11/12 07:56:11;;;;;;;155.20;40.30;;;2.60;99.90;;;;;;5074934;28;20039;-76
2022/11/12 07:58:37;;;;;;;157.48;45.60;;;2.60;99.90;;;;;;5074248;28;20036;-76
2022/11/12 08:01:27;;;;;;;147.95;43.35;;;2.70;99.90;;;;;;5074561;28;20035;-76
2022/11/12 08:03:53;;;;;;;147.95;44.80;;;2.80;99.90;;;;;;5071454;28;20074;-75
2022/11/12 08:06:19;;;;;;;85.40;38.38;;;2.90;99.90;;;;;;5057628;28;20418;-75
2022/11/12 08:08:45;;;;;;;92.40;42.25;;;3.00;99.90;;;;;;5055380;28;20025;-70
2022/11/12 08:11:10;;;;;;;90.05;41.65;;;3.10;99.90;;;;;;5055028;28;20075;-76
2022/11/12 08:13:36;;;;;;;123.13;45.75;;;3.30;99.90;;;;;;5070495;28;20028;-76
2022/11/12 08:16:02;;;;;;;146.80;49.90;;;3.40;99.90;;;;;;5054972;28;20021;-69
2022/11/12 08:18:28;;;;;;;152.18;46.92;;;3.50;99.90;;;;;;5066151;28;20045;-70
2022/11/12 08:21:01;;;;;;;94.43;40.30;;;3.60;99.90;;;;;;5073507;28;20032;-69
2022/11/12 08:23:28;;;;;;;89.97;39.83;;;3.70;99.90;;;;;;5074774;28;20498;-70
2022/11/12 08:25:58;;;;;;;103.85;46.53;;;3.80;99.90;;;;;;5073835;28;20032;-69
2022/11/12 08:28:23;;;;;;;103.38;47.05;;;4.00;99.90;;;;;;5073372;28;20017;-69
2022/11/12 08:30:49;;;;;;;112.43;46.97;;;4.10;99.90;;;;;;5100852;28;20027;-69
2022/11/12 08:33:15;;;;;;;105.15;47.35;;;4.30;99.90;;;;;;5077202;28;20103;-76
2022/11/12 08:35:40;;;;;;;111.95;49.60;;;4.40;99.90;;;;;;5074331;28;20024;-76
2022/11/12 08:38:08;;;;;;;102.82;49.00;;;4.50;99.90;;;;;;5074275;28;20525;-70
2022/11/12 08:40:33;;;;;;;99.60;47.92;;;4.60;99.90;;;;;;5072904;28;20024;-76
2022/11/12 08:43:01;;;;;;;104.53;49.45;;;4.70;99.90;;;;;;5072806;28;20052;-69
2022/11/12 08:45:27;;;;;;;103.93;51.20;;;4.90;99.90;;;;;;5074410;28;20025;-76
2022/11/12 08:47:58;;;;;;;110.30;50.92;;;5.00;99.90;;;;;;5074231;28;20028;-70
2022/11/12 08:50:24;;;;;;;87.88;46.28;;;5.10;99.90;;;;;;5072308;28;20013;-69
2022/11/12 08:52:50;;;;;;;99.85;52.75;;;5.20;99.90;;;;;;5069567;28;20028;-76
2022/11/12 08:55:15;;;;;;;94.80;50.03;;;5.40;99.90;;;;;;5070462;28;20433;-77
2022/11/12 08:57:42;;;;;;;99.15;51.70;;;5.50;99.90;;;;;;5069495;28;20029;-76
2022/11/12 09:00:11;;;;;;;102.95;54.10;;;5.60;99.90;;;;;;5071097;28;20021;-69
2022/11/12 09:02:38;;;;;;;91.93;46.88;;;5.80;99.90;;;;;;5072198;28;20021;-69
2022/11/12 09:05:04;;;;;;;87.57;47.00;;;5.90;99.90;;;;;;5071816;28;20047;-76
2022/11/12 09:07:30;;;;;;;88.28;48.05;;;6.00;99.90;;;;;;5074032;28;20056;-76
2022/11/12 09:09:57;;;;;;;82.10;45.70;;;6.10;99.90;;;;;;5072812;28;20066;-76
2022/11/12 09:12:22;;;;;;;77.15;43.22;;;6.30;99.90;;;;;;5074092;28;20051;-77
2022/11/12 09:14:48;;;;;;;78.40;42.08;;;6.40;99.90;;;;;;5074106;28;20126;-76
2022/11/12 09:17:14;;;;;;;78.70;41.83;;;6.50;99.90;;;;;;5073985;28;20031;-70
2022/11/12 09:19:39;;;;;;;67.45;40.75;;;6.60;99.90;;;;;;5091401;28;20394;-76
2022/11/12 09:22:05;;;;;;;67.90;38.78;;;6.70;99.90;;;;;;5094074;28;20031;-76
2022/11/12 09:24:30;;;;;;;61.67;37.65;;;6.80;99.90;;;;;;5075442;28;20086;-69
2022/11/12 09:26:56;;;;;;;72.38;39.40;;;6.90;99.90;;;;;;5073861;28;20028;-71
2022/11/12 09:29:21;;;;;;;68.45;36.25;;;7.00;99.90;;;;;;5073951;28;20020;-76
2022/11/12 09:31:47;;;;;;;65.00;36.80;;;7.10;99.90;;;;;;5073377;28;20474;-71
2022/11/12 09:34:13;;;;;;;61.10;35.20;;;7.20;99.90;;;;;;5072430;28;20025;-69
2022/11/12 09:36:39;;;;;;;61.38;34.90;;;7.30;99.90;;;;;;5072332;28;20533;-70
2022/11/12 09:39:04;;;;;;;56.88;33.13;;;7.40;99.90;;;;;;5072116;28;20497;-76
2022/11/12 09:41:39;;;;;;;58.95;35.28;;;7.60;99.90;;;;;;5073228;28;20094;-76
2022/11/12 09:44:11;;;;;;;57.67;33.30;;;7.60;99.90;;;;;;5073495;28;20024;-69
2022/11/12 09:46:48;;;;;;;50.70;30.95;;;7.70;99.90;;;;;;5073362;28;20025;-77
2022/11/12 09:49:24;;;;;;;48.95;28.42;;;7.80;99.90;;;;;;5073078;28;20060;-70
2022/11/12 09:52:01;;;;;;;43.65;25.83;;;8.00;99.90;;;;;;5073482;28;20024;-70
2022/11/12 09:54:30;;;;;;;38.25;24.00;;;8.10;99.90;;;;;;5073536;28;20025;-74
2022/11/12 09:56:56;;;;;;;42.58;22.77;;;8.10;99.90;;;;;;5073370;28;20031;-70
2022/11/12 09:59:23;;;;;;;40.92;25.42;;;8.20;99.90;;;;;;5073258;28;20041;-70
2022/11/12 10:02:18;;;;;;;36.70;22.70;;;8.30;99.90;;;;;;5073293;28;20066;-77
2022/11/12 10:05:02;;;;;;;38.75;22.52;;;8.40;99.90;;;;;;5072023;28;20031;-70
2022/11/12 10:07:46;;;;;;;41.60;22.45;;;8.50;99.90;;;;;;5073166;28;20030;-76
2022/11/12 10:10:18;;;;;;;41.58;24.48;;;8.60;99.90;;;;;;5073300;28;20115;-70
2022/11/12 10:13:01;;;;;;;37.60;22.60;;;8.60;99.90;;;;;;5071857;28;20031;-70
2022/11/12 10:18:58;;;;;;;35.92;22.92;;;8.70;99.90;;;;;;5082817;28;20047;-70
2022/11/12 10:21:39;;;;;;;36.60;22.27;;;8.80;99.90;;;;;;5093206;28;20016;-70
2022/11/12 10:24:09;;;;;;;34.42;21.08;;;9.00;99.90;;;;;;5077946;28;20036;-70
2022/11/12 10:26:37;;;;;;;32.25;21.90;;;9.00;99.90;;;;;;5073006;28;20028;-70
2022/11/12 10:29:11;;;;;;;43.30;25.55;;;9.10;99.90;;;;;;5072846;28;20028;-77
2022/11/12 10:31:37;;;;;;;34.83;21.23;;;9.20;99.90;;;;;;5072904;28;20029;-70
2022/11/12 10:34:12;;;;;;;44.25;23.70;;;9.20;99.90;;;;;;5073090;28;20535;-70
2022/11/12 10:36:41;;;;;;;42.42;24.48;;;9.30;99.90;;;;;;5072772;28;20079;-70
2022/11/12 10:39:07;;;;;;;44.85;25.25;;;9.40;99.90;;;;;;5071518;28;20040;-77
2022/11/12 10:41:33;;;;;;;40.33;24.50;;;9.50;99.90;;;;;;5072379;28;20147;-77
2022/11/12 10:44:04;;;;;;;47.70;26.35;;;9.60;99.90;;;;;;5074997;28;20016;-76
2022/11/12 10:46:33;;;;;;;40.67;24.08;;;9.70;99.90;;;;;;5076788;28;20047;-77
2022/11/12 10:49:12;;;;;;;39.45;25.33;;;9.70;99.90;;;;;;5075481;28;20025;-70
2022/11/12 10:51:37;;;;;;;55.85;30.98;;;9.80;99.90;;;;;;5076831;28;20424;-70
2022/11/12 10:54:32;;;;;;;47.88;27.48;;;9.80;99.90;;;;;;5076377;28;20154;-69
2022/11/12 10:57:20;;;;;;;81.95;37.53;;;9.90;99.90;;;;;;5075531;28;20029;-76
2022/11/12 10:59:45;;;;;;;53.75;24.60;;;10.10;99.90;;;;;;5076405;28;20086;-77
2022/11/12 11:02:17;;;;;;;45.58;22.13;;;10.20;99.90;;;;;;5076473;28;20020;-77
2022/11/12 11:04:43;;;;;;;42.45;20.65;;;10.30;99.90;;;;;;5076188;28;20485;-70
2022/11/12 11:07:23;;;;;;;55.42;26.85;;;10.30;99.90;;;;;;5076259;28;20021;-70
2022/11/12 11:09:57;;;;;;;31.88;19.20;;;10.40;99.90;;;;;;5074896;28;20024;-68
2022/11/12 11:12:26;;;;;;;81.00;31.90;;;10.40;99.90;;;;;;5075596;28;20067;-68
2022/11/12 11:15:27;;;;;;;39.35;19.45;;;10.50;99.90;;;;;;5074282;28;20024;-68
2022/11/12 11:17:54;;;;;;;31.58;17.95;;;10.60;99.90;;;;;;5013603;28;20369;-75
2022/11/12 11:20:43;;;;;;;33.40;18.92;;;10.60;99.90;;;;;;5061177;28;20056;-68
2022/11/12 11:23:33;;;;;;;25.02;13.45;;;10.70;99.90;;;;;;5075842;28;20028;-68
2022/11/12 11:26:11;;;;;;;16.63;9.38;;;10.80;99.90;;;;;;5091467;28;20024;-68
2022/11/12 11:29:06;;;;;;;17.08;9.63;;;10.80;99.90;;;;;;5073455;28;20021;-74
2022/11/12 11:31:41;;;;;;;14.38;9.57;;;10.90;99.90;;;;;;5075456;28;20102;-74
2022/11/12 11:34:15;;;;;;;14.90;8.88;;;10.90;99.90;;;;;;5075183;28;20024;-74
2022/11/12 11:36:49;;;;;;;16.10;10.32;;;11.00;99.90;;;;;;5075214;28;20470;-75
2022/11/12 11:39:31;;;;;;;21.08;10.60;;;11.00;99.90;;;;;;5074836;28;20036;-74
2022/11/12 11:42:15;;;;;;;15.35;10.25;;;11.10;99.90;;;;;;5073843;28;20071;-68
2022/11/12 11:44:52;;;;;;;19.63;11.48;;;11.10;99.90;;;;;;5075457;28;20043;-74
2022/11/12 11:47:49;;;;;;;17.35;10.30;;;11.10;99.90;;;;;;5075424;28;20020;-75
2022/11/12 11:50:26;;;;;;;18.85;10.95;;;11.10;99.90;;;;;;5074310;28;20032;-74
2022/11/12 11:53:20;;;;;;;19.50;12.43;;;11.10;99.90;;;;;;5075654;28;20020;-74
2022/11/12 11:55:56;;;;;;;17.58;11.30;;;11.10;99.90;;;;;;5075507;28;20020;-75
2022/11/12 11:58:46;;;;;;;18.10;10.43;;;11.20;99.90;;;;;;5090647;28;20040;-68
2022/11/12 12:01:26;;;;;;;21.77;11.30;;;11.20;99.90;;;;;;5074009;28;20024;-67
2022/11/12 12:04:13;;;;;;;18.33;10.57;;;11.20;99.90;;;;;;5075177;28;20509;-68
2022/11/12 12:07:08;;;;;;;17.67;11.50;;;11.20;99.90;;;;;;5075145;28;20099;-75
2022/11/12 12:10:00;;;;;;;17.50;11.18;;;11.20;99.90;;;;;;5064387;28;20036;-69
2022/11/12 12:12:45;;;;;;;20.05;11.25;;;11.20;99.90;;;;;;5073878;28;20123;-75
2022/11/12 12:15:37;;;;;;;15.50;9.35;;;11.30;99.90;;;;;;5075001;28;20427;-75
2022/11/12 12:18:21;;;;;;;17.53;9.53;;;11.30;99.90;;;;;;5074751;28;20040;-75
2022/11/12 12:20:57;;;;;;;14.90;9.98;;;11.30;99.90;;;;;;5074769;28;20103;-75
2022/11/12 12:23:32;;;;;;;15.13;8.60;;;11.30;99.90;;;;;;5090385;28;20139;-68
2022/11/12 12:26:01;;;;;;;14.30;8.57;;;11.40;99.90;;;;;;5073675;28;20024;-68
2022/11/12 12:28:58;;;;;;;15.27;7.55;;;11.30;99.90;;;;;;5074810;28;20482;-68
2022/11/12 12:31:34;;;;;;;15.77;8.48;;;11.40;99.90;;;;;;5074774;28;20021;-75
2022/11/12 12:34:05;;;;;;;12.32;7.78;;;11.30;99.90;;;;;;5074556;28;20112;-75
2022/11/12 12:36:36;;;;;;;12.88;7.35;;;11.40;99.90;;;;;;5073467;28;20013;-75
2022/11/12 12:39:16;;;;;;;14.68;7.22;;;11.40;99.90;;;;;;5073301;28;20037;-68
2022/11/12 12:41:53;;;;;;;19.30;9.02;;;11.30;99.90;;;;;;5074276;28;20051;-67
2022/11/12 12:44:18;;;;;;;13.10;7.68;;;11.40;99.90;;;;;;5071408;28;20025;-76
2022/11/12 12:46:48;;;;;;;15.27;7.38;;;11.30;99.90;;;;;;5072989;28;20020;-76
2022/11/12 12:49:17;;;;;;;13.93;7.22;;;11.40;99.90;;;;;;5074004;28;20536;-75
2022/11/12 12:51:43;;;;;;;10.27;6.95;;;11.40;99.90;;;;;;5074150;28;20135;-75
2022/11/12 12:54:33;;;;;;;13.18;6.85;;;11.40;99.90;;;;;;5073958;28;20502;-68
2022/11/12 12:56:59;;;;;;;11.48;6.82;;;11.40;99.90;;;;;;5074303;28;20383;-68
2022/11/12 12:59:25;;;;;;;10.15;6.50;;;11.40;99.90;;;;;;5073917;28;20093;-74
2022/11/12 13:01:59;;;;;;;15.15;6.82;;;11.40;99.90;;;;;;5072591;28;20112;-74
2022/11/12 13:04:56;;;;;;;8.52;6.13;;;11.30;99.40;;;;;;5074137;28;20033;-68
2022/11/12 13:07:47;;;;;;;10.85;5.82;;;11.40;99.90;;;;;;5073652;28;20061;-70